Time;durP1;ratioP1;P1;durP2;ratioP2;P2;SDS_P1;SDS_P2;PMS_P1;PMS_P2;Temp;Humidity;BMP_temperature;BMP_pressure;BME280_temperature;BME280_humidity;BME280_pressure;Samples;Min_cycle;Max_cycle;Signal;HPM_P1;HPM_P2
2021/07/13 00:00:29;;;;;;;11.63;8.98;;;21.00;98.10;;;;;;5048846;28;20036;-77
2021/07/13 00:02:56;;;;;;;12.65;8.98;;;21.00;98.00;;;;;;5031052;28;20347;-77
2021/07/13 00:05:22;;;;;;;11.07;9.00;;;21.00;97.90;;;;;;5048950;28;20052;-77
2021/07/13 00:07:49;;;;;;;12.93;9.10;;;20.90;97.90;;;;;;5048763;28;20029;-77
2021/07/13 00:10:18;;;;;;;14.60;8.68;;;20.90;98.00;;;;;;5031356;28;20432;-78
2021/07/13 00:12:43;;;;;;;12.63;8.40;;;20.90;98.10;;;;;;5030666;28;20127;-76
2021/07/13 00:15:32;;;;;;;19.02;9.38;;;20.80;98.30;;;;;;5048841;28;20062;-77
2021/07/13 00:17:59;;;;;;;10.70;8.77;;;20.80;98.50;;;;;;5030143;28;20107;-77
2021/07/13 00:20:26;;;;;;;9.75;8.73;;;20.70;98.50;;;;;;5030455;28;20107;-78
2021/07/13 00:22:52;;;;;;;14.52;8.38;;;20.70;98.50;;;;;;5030610;28;20025;-77
2021/07/13 00:25:18;;;;;;;15.23;9.07;;;20.70;98.90;;;;;;5030156;28;20035;-76
2021/07/13 00:27:45;;;;;;;13.35;8.73;;;20.70;98.90;;;;;;5030899;28;20571;-76
2021/07/13 00:30:13;;;;;;;10.00;8.65;;;20.70;98.60;;;;;;5048848;28;20413;-75
2021/07/13 00:32:39;;;;;;;10.10;8.10;;;20.60;98.50;;;;;;5030522;28;20394;-76
2021/07/13 00:35:05;;;;;;;9.93;8.13;;;20.60;98.10;;;;;;5030498;28;20390;-76
2021/07/13 00:37:31;;;;;;;13.15;8.00;;;20.60;97.70;;;;;;5046940;28;20501;-75
2021/07/13 00:39:57;;;;;;;15.35;7.70;;;20.70;97.10;;;;;;5048407;28;20104;-76
2021/07/13 00:42:22;;;;;;;8.10;6.88;;;20.80;96.60;;;;;;5047843;28;20562;-76
2021/07/13 00:44:48;;;;;;;10.90;7.60;;;20.80;96.30;;;;;;5047937;28;20505;-77
2021/07/13 00:47:19;;;;;;;9.82;7.30;;;20.90;95.90;;;;;;5030570;28;20032;-77
2021/07/13 00:49:46;;;;;;;8.68;7.53;;;21.00;95.70;;;;;;5029969;28;20021;-76
2021/07/13 00:52:12;;;;;;;10.43;7.03;;;21.00;95.70;;;;;;5029966;28;20037;-79
2021/07/13 00:54:39;;;;;;;8.70;7.25;;;21.00;95.50;;;;;;5030138;28;20108;-78
2021/07/13 00:57:12;;;;;;;15.63;7.38;;;21.00;95.50;;;;;;5029983;28;20041;-77
2021/07/13 00:59:39;;;;;;;10.73;7.25;;;21.00;95.50;;;;;;5029651;28;20389;-78
2021/07/13 01:02:07;;;;;;;11.60;7.53;;;21.10;95.50;;;;;;5030249;28;20037;-79
2021/07/13 01:04:34;;;;;;;9.70;7.53;;;21.00;95.50;;;;;;5029946;28;20417;-77
2021/07/13 01:07:33;;;;;;;10.15;8.02;;;21.10;95.60;;;;;;5047386;28;20057;-78
2021/07/13 01:10:12;;;;;;;9.43;7.22;;;21.00;95.70;;;;;;5024930;28;20037;-78
2021/07/13 01:12:46;;;;;;;11.32;6.85;;;21.00;95.70;;;;;;5029589;28;20584;-77
2021/07/13 01:15:17;;;;;;;8.55;7.45;;;20.90;95.80;;;;;;5029839;28;20112;-76
2021/07/13 01:17:55;;;;;;;12.60;7.43;;;20.90;95.80;;;;;;5029917;28;20486;-77
2021/07/13 01:20:58;;;;;;;12.43;8.05;;;20.90;95.90;;;;;;5047242;28;20052;-78
2021/07/13 01:23:49;;;;;;;10.38;7.28;;;21.00;96.00;;;;;;5029676;28;20087;-76
2021/07/13 01:26:39;;;;;;;9.50;7.95;;;21.00;95.80;;;;;;5047132;28;20025;-76
2021/07/13 01:29:11;;;;;;;13.38;7.70;;;21.00;95.60;;;;;;5029771;28;20028;-77
2021/07/13 01:31:42;;;;;;;12.30;8.27;;;21.00;95.60;;;;;;5029320;28;20443;-77
2021/07/13 01:34:16;;;;;;;10.52;8.18;;;20.90;95.60;;;;;;5030052;28;20087;-79
2021/07/13 01:36:47;;;;;;;13.10;8.10;;;20.90;95.60;;;;;;5040981;28;20052;-79
2021/07/13 01:39:15;;;;;;;16.92;7.57;;;20.90;95.80;;;;;;5067299;28;20032;-79
2021/07/13 01:41:41;;;;;;;14.07;7.32;;;20.90;95.80;;;;;;5067014;28;20115;-75
2021/07/13 01:44:09;;;;;;;9.25;6.95;;;20.90;95.70;;;;;;5067283;28;20649;-77
2021/07/13 01:46:37;;;;;;;10.45;7.63;;;21.00;95.60;;;;;;5065138;28;20492;-79
2021/07/13 01:49:03;;;;;;;13.07;8.00;;;20.90;95.50;;;;;;5066644;28;20016;-77
2021/07/13 01:51:30;;;;;;;9.10;7.57;;;21.00;95.40;;;;;;5066669;28;20097;-78
2021/07/13 01:54:04;;;;;;;12.75;7.57;;;21.00;95.20;;;;;;5065676;28;20496;-79
2021/07/13 01:56:30;;;;;;;8.57;7.47;;;21.00;95.10;;;;;;5066579;28;20129;-76
2021/07/13 01:58:58;;;;;;;10.40;7.07;;;21.00;95.00;;;;;;5063199;28;20032;-78
2021/07/13 02:01:25;;;;;;;10.27;7.63;;;21.00;94.80;;;;;;5066387;28;20052;-79
2021/07/13 02:03:53;;;;;;;11.68;7.88;;;21.00;95.00;;;;;;5064987;28;20044;-77
2021/07/13 02:06:23;;;;;;;9.38;7.88;;;20.90;95.20;;;;;;5065116;28;20036;-77
2021/07/13 02:08:51;;;;;;;8.52;6.90;;;20.90;95.40;;;;;;5065302;28;20027;-78
2021/07/13 02:11:17;;;;;;;10.65;7.18;;;20.80;95.60;;;;;;5065404;28;20123;-78
2021/07/13 02:13:44;;;;;;;9.68;7.20;;;20.80;95.80;;;;;;5066986;28;20032;-77
2021/07/13 02:16:11;;;;;;;9.27;7.30;;;20.70;95.80;;;;;;5064984;28;20489;-79
2021/07/13 02:18:36;;;;;;;7.97;7.15;;;20.70;95.90;;;;;;5064895;28;20762;-77
2021/07/13 02:21:09;;;;;;;11.10;7.80;;;20.60;96.00;;;;;;5065866;28;20035;-77
2021/07/13 02:23:36;;;;;;;11.02;8.00;;;20.60;96.10;;;;;;5066698;28;20016;-78
2021/07/13 02:26:05;;;;;;;12.73;7.75;;;20.60;96.10;;;;;;5066354;28;20025;-78
2021/07/13 02:28:36;;;;;;;15.95;7.85;;;20.60;95.90;;;;;;5066509;28;20024;-78
2021/07/13 02:31:17;;;;;;;8.02;7.22;;;20.60;95.90;;;;;;5066615;28;20028;-79
2021/07/13 02:34:02;;;;;;;7.95;7.10;;;20.60;95.80;;;;;;5065239;28;20032;-77
2021/07/13 02:36:31;;;;;;;8.15;7.00;;;20.60;95.90;;;;;;5059624;28;20076;-76
2021/07/13 02:38:58;;;;;;;8.18;7.20;;;20.60;96.00;;;;;;5046417;28;20043;-76
2021/07/13 02:41:25;;;;;;;8.82;7.22;;;20.60;96.20;;;;;;5046408;28;20059;-78
2021/07/13 02:43:54;;;;;;;13.82;8.23;;;20.70;96.40;;;;;;5027937;28;20050;-78
2021/07/13 02:46:21;;;;;;;12.18;8.98;;;20.70;96.50;;;;;;5044111;28;20025;-79
2021/07/13 02:48:49;;;;;;;13.00;7.95;;;20.80;96.50;;;;;;5046190;28;20090;-78
2021/07/13 02:51:16;;;;;;;12.05;8.15;;;20.80;96.70;;;;;;5045590;28;20094;-77
2021/07/13 02:53:44;;;;;;;20.00;8.38;;;20.90;96.40;;;;;;5028423;28;20025;-77
2021/07/13 02:56:13;;;;;;;11.93;7.63;;;21.00;96.30;;;;;;5028062;28;20029;-77
2021/07/13 02:58:40;;;;;;;12.02;8.48;;;21.00;96.10;;;;;;5030020;28;20040;-78
2021/07/13 03:01:07;;;;;;;21.48;8.70;;;21.10;96.20;;;;;;5032351;28;20108;-78
2021/07/13 03:03:34;;;;;;;11.25;8.32;;;21.20;95.70;;;;;;5050076;28;20033;-78
2021/07/13 03:06:02;;;;;;;11.27;7.72;;;21.30;95.60;;;;;;5031510;28;20020;-77
2021/07/13 03:08:28;;;;;;;10.13;7.72;;;21.20;95.50;;;;;;5031508;28;20029;-78
2021/07/13 03:10:58;;;;;;;17.23;8.38;;;21.20;95.70;;;;;;5032577;28;20086;-78
2021/07/13 03:13:24;;;;;;;13.50;7.97;;;21.20;95.80;;;;;;5031724;28;20045;-78
2021/07/13 03:15:51;;;;;;;11.57;8.55;;;21.20;95.80;;;;;;5032099;28;20025;-77
2021/07/13 03:18:17;;;;;;;9.82;8.05;;;21.20;95.80;;;;;;5049609;28;20039;-78
2021/07/13 03:20:46;;;;;;;9.38;7.43;;;21.20;95.80;;;;;;5049794;28;20041;-77
2021/07/13 03:23:13;;;;;;;13.68;8.25;;;21.20;95.80;;;;;;5031839;28;20412;-78
2021/07/13 03:25:41;;;;;;;8.68;7.72;;;21.20;96.00;;;;;;5049547;28;20033;-77
2021/07/13 03:28:10;;;;;;;10.60;8.32;;;21.20;96.10;;;;;;5032184;28;20120;-77
2021/07/13 03:30:36;;;;;;;20.25;8.63;;;21.20;96.10;;;;;;5031469;28;20033;-77
2021/07/13 03:33:02;;;;;;;14.00;9.27;;;21.20;96.10;;;;;;5031562;28;20492;-77
2021/07/13 03:35:30;;;;;;;10.90;8.90;;;21.30;96.20;;;;;;5031512;28;20076;-78
2021/07/13 03:37:56;;;;;;;14.00;8.82;;;21.30;96.10;;;;;;5049214;28;20071;-77
2021/07/13 03:40:24;;;;;;;13.63;7.95;;;21.30;96.00;;;;;;5049519;28;20021;-78
2021/07/13 03:42:51;;;;;;;10.95;8.95;;;21.50;95.80;;;;;;5031217;28;20025;-78
2021/07/13 03:45:18;;;;;;;14.02;7.57;;;21.60;95.70;;;;;;5049458;28;20086;-76
2021/07/13 03:47:46;;;;;;;10.77;8.38;;;21.80;95.10;;;;;;5049352;28;20413;-77
2021/07/13 03:50:13;;;;;;;13.00;9.15;;;22.00;94.50;;;;;;5031013;28;20028;-76
2021/07/13 03:52:38;;;;;;;9.95;7.45;;;22.30;94.10;;;;;;5049070;28;20029;-77
2021/07/13 03:55:04;;;;;;;8.68;6.80;;;22.40;93.70;;;;;;5049353;28;20052;-78
2021/07/13 03:57:30;;;;;;;9.02;6.97;;;22.40;93.60;;;;;;5049157;28;20044;-78
2021/07/13 03:59:56;;;;;;;12.73;7.28;;;22.60;93.50;;;;;;5049023;28;20031;-80
2021/07/13 04:02:22;;;;;;;21.70;8.18;;;22.70;93.30;;;;;;5031169;28;20032;-79
2021/07/13 04:04:47;;;;;;;9.35;6.60;;;22.80;92.80;;;;;;5048289;28;20154;-78
2021/07/13 04:07:13;;;;;;;7.93;7.07;;;22.90;92.70;;;;;;5049038;28;20043;-78
2021/07/13 04:09:40;;;;;;;12.15;7.50;;;23.10;92.10;;;;;;5029990;28;20029;-78
2021/07/13 04:12:06;;;;;;;11.60;7.28;;;23.40;91.50;;;;;;5048240;28;20489;-79
2021/07/13 04:14:31;;;;;;;8.05;7.28;;;23.50;91.20;;;;;;5048625;28;20551;-79
2021/07/13 04:16:57;;;;;;;17.05;7.00;;;23.60;91.30;;;;;;5048308;28;20044;-80
2021/07/13 04:19:23;;;;;;;9.75;6.72;;;23.70;91.10;;;;;;5030247;28;20025;-80
2021/07/13 04:21:48;;;;;;;14.18;6.82;;;23.60;90.80;;;;;;5030601;28;20388;-79
2021/07/13 04:24:14;;;;;;;8.73;6.35;;;23.60;90.40;;;;;;5048087;28;20033;-79
2021/07/13 04:26:40;;;;;;;8.20;6.75;;;23.60;90.80;;;;;;5048482;28;20040;-79
2021/07/13 04:29:05;;;;;;;8.25;6.05;;;23.80;91.00;;;;;;5048309;28;20040;-80
2021/07/13 04:31:31;;;;;;;15.70;6.65;;;23.90;90.60;;;;;;5030681;28;20588;-79
2021/07/13 04:33:57;;;;;;;13.65;6.53;;;24.10;89.80;;;;;;5047436;28;20709;-80
2021/07/13 04:36:22;;;;;;;12.07;6.45;;;24.30;88.30;;;;;;5048055;28;20421;-80
2021/07/13 04:38:48;;;;;;;8.05;6.22;;;24.50;87.70;;;;;;5030296;28;20094;-80
2021/07/13 04:41:14;;;;;;;8.50;6.72;;;24.50;87.80;;;;;;5030413;28;20025;-79
2021/07/13 04:43:39;;;;;;;13.65;5.97;;;24.60;87.00;;;;;;5048170;28;20490;-79
2021/07/13 04:46:05;;;;;;;10.52;6.47;;;24.70;86.20;;;;;;5029936;28;20485;-80
2021/07/13 04:48:30;;;;;;;10.43;6.00;;;24.90;85.60;;;;;;5030261;28;20043;-79
2021/07/13 04:50:56;;;;;;;6.78;6.07;;;24.80;85.00;;;;;;5029561;28;20029;-80
2021/07/13 04:53:22;;;;;;;14.48;6.30;;;24.90;84.80;;;;;;5030132;28;20444;-77
2021/07/13 04:55:47;;;;;;;10.77;6.28;;;25.00;84.50;;;;;;5047966;28;20111;-79
2021/07/13 04:58:13;;;;;;;9.55;5.93;;;25.00;82.90;;;;;;5047935;28;20231;-78
2021/07/13 05:00:39;;;;;;;10.40;6.40;;;24.90;83.80;;;;;;5047979;28;20028;-77
2021/07/13 05:03:04;;;;;;;14.30;5.57;;;24.90;83.20;;;;;;5029994;28;20029;-77
2021/07/13 05:05:30;;;;;;;8.10;6.40;;;25.00;83.10;;;;;;5028966;28;20468;-78
2021/07/13 05:07:55;;;;;;;7.65;5.90;;;25.10;83.80;;;;;;5029496;28;20667;-78
2021/07/13 05:10:21;;;;;;;15.30;6.00;;;25.30;82.30;;;;;;5029316;28;20037;-77
2021/07/13 05:12:47;;;;;;;10.00;6.05;;;25.20;81.90;;;;;;5047703;28;20043;-78
2021/07/13 05:15:14;;;;;;;10.18;5.70;;;25.20;81.90;;;;;;5030171;28;20029;-77
2021/07/13 05:17:40;;;;;;;7.00;5.85;;;25.40;80.90;;;;;;5029239;28;20044;-76
2021/07/13 05:20:08;;;;;;;10.50;6.70;;;25.40;81.00;;;;;;5028422;28;20029;-78
2021/07/13 05:22:34;;;;;;;7.85;5.72;;;25.40;80.90;;;;;;5028954;28;20037;-77
2021/07/13 05:25:00;;;;;;;8.93;5.85;;;25.50;80.90;;;;;;5029304;28;20438;-77
2021/07/13 05:27:26;;;;;;;12.00;6.47;;;25.60;80.50;;;;;;5029373;28;20489;-77
2021/07/13 05:29:52;;;;;;;10.57;6.43;;;25.90;78.70;;;;;;5047328;28;20075;-77
2021/07/13 05:32:17;;;;;;;16.77;5.75;;;25.80;77.70;;;;;;5028915;28;20033;-77
2021/07/13 05:34:43;;;;;;;11.98;5.80;;;25.90;78.50;;;;;;5046949;28;20067;-78
2021/07/13 05:37:10;;;;;;;10.10;6.43;;;26.00;77.80;;;;;;5046677;28;20501;-78
2021/07/13 05:39:36;;;;;;;12.18;6.68;;;26.30;77.40;;;;;;5047227;28;20099;-78
2021/07/13 05:42:02;;;;;;;12.23;7.07;;;26.50;76.80;;;;;;5046981;28;20115;-78
2021/07/13 05:44:28;;;;;;;8.77;6.85;;;26.70;75.30;;;;;;5029291;28;20043;-77
2021/07/13 05:46:54;;;;;;;7.00;5.35;;;26.80;75.10;;;;;;5046438;28;20448;-77
2021/07/13 05:49:20;;;;;;;8.90;5.57;;;27.00;74.00;;;;;;5028764;28;20426;-77
2021/07/13 05:51:45;;;;;;;18.48;5.80;;;27.20;73.70;;;;;;5046885;28;20109;-77
2021/07/13 05:54:11;;;;;;;14.98;5.65;;;27.50;72.10;;;;;;5047010;28;20331;-80
2021/07/13 05:56:37;;;;;;;11.65;6.25;;;28.20;70.00;;;;;;5046509;28;20028;-79
2021/07/13 05:59:04;;;;;;;10.10;5.88;;;28.60;66.70;;;;;;5028969;28;20060;-80
2021/07/13 06:01:30;;;;;;;8.50;5.90;;;29.00;66.20;;;;;;5028386;28;20645;-78
2021/07/13 06:03:55;;;;;;;10.07;5.47;;;29.80;61.90;;;;;;5028404;28;20052;-78
2021/07/13 06:06:21;;;;;;;8.18;5.95;;;30.20;60.80;;;;;;5047168;28;20040;-78
2021/07/13 06:08:47;;;;;;;9.63;5.47;;;31.00;58.10;;;;;;5046173;28;20104;-77
2021/07/13 06:11:12;;;;;;;11.40;5.50;;;31.50;56.30;;;;;;5028774;28;20028;-77
2021/07/13 06:13:38;;;;;;;11.75;5.88;;;32.30;54.60;;;;;;5046466;28;20064;-78
2021/07/13 06:16:04;;;;;;;11.75;5.68;;;33.10;52.00;;;;;;5046087;28;20025;-77
2021/07/13 06:18:29;;;;;;;14.50;5.22;;;33.30;51.20;;;;;;5046016;28;20041;-78
2021/07/13 06:20:55;;;;;;;8.15;5.35;;;34.20;49.50;;;;;;5046092;28;20021;-78
2021/07/13 06:23:21;;;;;;;9.48;5.22;;;34.80;47.90;;;;;;5028408;28;20501;-78
2021/07/13 06:25:46;;;;;;;11.02;5.75;;;35.40;46.30;;;;;;5028618;28;20043;-77
2021/07/13 06:28:12;;;;;;;17.40;5.32;;;35.60;45.90;;;;;;5028471;28;20486;-79
2021/07/13 06:30:39;;;;;;;12.57;5.40;;;35.90;45.10;;;;;;5028545;28;20063;-78
2021/07/13 06:33:05;;;;;;;11.27;4.90;;;36.40;44.00;;;;;;5027825;28;20032;-78
2021/07/13 06:35:30;;;;;;;8.57;5.55;;;36.70;43.00;;;;;;5046364;28;20036;-78
2021/07/13 06:37:58;;;;;;;10.27;5.43;;;37.00;42.00;;;;;;5060635;28;20049;-78
2021/07/13 06:40:25;;;;;;;8.20;5.03;;;37.00;41.30;;;;;;5064585;28;20334;-78
2021/07/13 06:42:51;;;;;;;16.35;6.47;;;36.70;41.80;;;;;;5066043;28;20093;-79
2021/07/13 06:45:16;;;;;;;16.75;5.65;;;36.90;41.20;;;;;;5066216;28;20441;-79
2021/07/13 06:47:42;;;;;;;10.65;5.18;;;37.00;41.30;;;;;;5066015;28;20544;-78
2021/07/13 06:50:09;;;;;;;14.23;5.57;;;37.00;41.70;;;;;;5064401;28;20445;-78
2021/07/13 06:52:35;;;;;;;12.48;5.25;;;37.30;41.20;;;;;;5065928;28;20209;-79
2021/07/13 06:55:03;;;;;;;7.88;5.40;;;37.10;40.70;;;;;;5064644;28;20094;-78
2021/07/13 06:57:28;;;;;;;12.80;5.85;;;37.20;40.40;;;;;;5066099;28;20078;-79
2021/07/13 06:59:59;;;;;;;10.32;4.82;;;37.10;40.80;;;;;;5065871;28;20036;-77
2021/07/13 07:02:28;;;;;;;10.13;5.78;;;37.10;41.00;;;;;;5065528;28;20131;-78
2021/07/13 07:04:53;;;;;;;11.77;5.07;;;36.70;41.10;;;;;;5066183;28;20108;-78
2021/07/13 07:07:19;;;;;;;7.93;4.95;;;36.90;41.50;;;;;;5064490;28;20143;-78
2021/07/13 07:09:45;;;;;;;13.23;5.10;;;36.70;41.90;;;;;;5065040;28;20029;-78
2021/07/13 07:12:10;;;;;;;8.10;4.82;;;36.80;41.50;;;;;;5066241;28;20507;-79
2021/07/13 07:14:36;;;;;;;9.40;4.63;;;37.00;40.80;;;;;;5066115;28;20034;-79
2021/07/13 07:17:02;;;;;;;12.20;4.95;;;36.90;40.20;;;;;;5064124;28;20037;-78
2021/07/13 07:19:27;;;;;;;10.65;4.60;;;37.20;39.40;;;;;;5066044;28;20069;-79
2021/07/13 07:21:53;;;;;;;10.35;4.45;;;37.10;40.10;;;;;;5065611;28;20469;-79
2021/07/13 07:24:19;;;;;;;11.10;4.47;;;37.50;39.90;;;;;;5064463;28;20544;-80
2021/07/13 07:26:44;;;;;;;9.77;4.90;;;37.80;39.20;;;;;;5064222;28;20081;-79
2021/07/13 07:29:10;;;;;;;12.07;5.30;;;37.50;39.50;;;;;;5065442;28;20241;-79
2021/07/13 07:31:36;;;;;;;13.40;4.97;;;37.40;39.30;;;;;;5065607;28;20039;-79
2021/07/13 07:34:01;;;;;;;10.73;5.00;;;37.30;41.10;;;;;;5063945;28;20081;-79
2021/07/13 07:36:27;;;;;;;11.30;4.65;;;37.60;39.50;;;;;;5059838;28;20068;-78
2021/07/13 07:38:54;;;;;;;10.30;4.40;;;37.40;39.90;;;;;;5045515;28;20041;-78
2021/07/13 07:41:20;;;;;;;8.00;4.35;;;37.20;39.60;;;;;;5045809;28;20027;-78
2021/07/13 07:43:47;;;;;;;13.85;4.47;;;37.10;40.80;;;;;;5045677;28;20033;-79
2021/07/13 07:46:12;;;;;;;20.83;5.07;;;37.40;41.10;;;;;;5031293;28;20028;-78
2021/07/13 07:48:38;;;;;;;10.48;4.65;;;37.40;41.20;;;;;;5048949;28;20033;-79
2021/07/13 07:51:04;;;;;;;14.35;5.60;;;37.60;40.30;;;;;;5049105;28;20035;-78
2021/07/13 07:53:30;;;;;;;5.93;4.38;;;37.50;40.40;;;;;;5049394;28;20040;-79
2021/07/13 07:55:56;;;;;;;14.77;4.47;;;37.50;40.60;;;;;;5031284;28;20029;-77
2021/07/13 07:58:22;;;;;;;10.88;4.60;;;37.50;40.70;;;;;;5048634;28;20037;-78
2021/07/13 08:00:48;;;;;;;14.23;5.25;;;37.30;40.50;;;;;;5030535;28;20029;-78
2021/07/13 08:03:13;;;;;;;9.48;5.45;;;37.20;41.80;;;;;;5048518;28;20025;-78
2021/07/13 08:05:40;;;;;;;8.45;4.80;;;36.90;42.40;;;;;;5048907;28;20033;-78
2021/07/13 08:08:07;;;;;;;12.63;5.07;;;36.70;42.30;;;;;;5048805;28;20519;-79
2021/07/13 08:10:33;;;;;;;12.65;4.97;;;36.70;42.80;;;;;;5030768;28;20029;-79
2021/07/13 08:12:59;;;;;;;13.40;5.07;;;36.30;42.70;;;;;;5048460;28;20053;-79
2021/07/13 08:15:26;;;;;;;8.93;5.55;;;35.80;44.40;;;;;;5030932;28;20124;-79
2021/07/13 08:17:52;;;;;;;7.57;5.45;;;36.10;44.30;;;;;;5030366;28;20044;-78
2021/07/13 08:20:18;;;;;;;16.55;4.90;;;36.30;43.80;;;;;;5030788;28;20025;-78
2021/07/13 08:22:48;;;;;;;6.90;4.93;;;36.50;43.60;;;;;;5030488;28;20039;-79
2021/07/13 08:25:18;;;;;;;13.30;4.90;;;37.00;41.80;;;;;;5030732;28;20056;-78
2021/07/13 08:27:45;;;;;;;11.25;4.78;;;37.20;40.90;;;;;;5048094;28;20032;-79
2021/07/13 08:30:11;;;;;;;14.40;4.60;;;37.30;41.50;;;;;;5048133;28;20055;-78
2021/07/13 08:32:37;;;;;;;9.70;4.63;;;37.40;40.30;;;;;;5048016;28;20439;-79
2021/07/13 08:35:04;;;;;;;9.18;5.10;;;37.40;38.80;;;;;;5048464;28;20029;-78
2021/07/13 08:37:32;;;;;;;11.45;5.20;;;37.50;39.60;;;;;;5048299;28;20060;-79
2021/07/13 08:39:59;;;;;;;7.25;4.95;;;37.10;40.40;;;;;;5047835;28;20025;-79
2021/07/13 08:42:25;;;;;;;9.75;4.60;;;37.10;41.30;;;;;;5030403;28;20404;-78
2021/07/13 08:44:51;;;;;;;15.60;5.63;;;37.40;40.00;;;;;;5048018;28;20090;-78
2021/07/13 08:47:17;;;;;;;13.68;5.97;;;37.10;40.30;;;;;;5029857;28;20033;-78
2021/07/13 08:49:48;;;;;;;13.48;5.40;;;37.10;40.80;;;;;;5047752;28;20059;-81
2021/07/13 08:52:14;;;;;;;14.50;5.38;;;37.00;41.30;;;;;;5048004;28;20021;-78
2021/07/13 08:54:39;;;;;;;11.10;5.50;;;36.80;41.60;;;;;;5030242;28;20029;-78
2021/07/13 08:57:08;;;;;;;7.38;5.00;;;36.80;41.90;;;;;;5047699;28;20395;-79
2021/07/13 08:59:34;;;;;;;10.77;5.07;;;37.10;41.10;;;;;;5030267;28;20110;-78
2021/07/13 09:01:59;;;;;;;6.50;4.63;;;36.90;40.60;;;;;;5047517;28;20482;-78
2021/07/13 09:04:33;;;;;;;13.23;5.65;;;37.10;40.70;;;;;;5029659;28;20036;-79
2021/07/13 09:06:59;;;;;;;9.05;5.32;;;36.70;40.80;;;;;;5047808;28;20032;-78
2021/07/13 09:09:32;;;;;;;19.52;6.05;;;36.60;41.70;;;;;;5029635;28;20029;-78
2021/07/13 09:12:14;;;;;;;8.40;4.70;;;36.60;40.80;;;;;;5030175;28;20028;-79
2021/07/13 09:14:51;;;;;;;5.88;4.57;;;36.50;39.70;;;;;;5047355;28;20028;-78
2021/07/13 09:17:34;;;;;;;6.50;4.68;;;36.10;39.70;;;;;;5046841;28;20040;-81
2021/07/13 09:20:21;;;;;;;32.67;5.65;;;36.30;40.70;;;;;;5029312;28;20029;-79
2021/07/13 09:22:59;;;;;;;14.57;4.72;;;36.90;41.10;;;;;;5029564;28;20036;-79
2021/07/13 09:25:26;;;;;;;6.13;4.30;;;37.00;39.70;;;;;;5029132;28;20151;-77
2021/07/13 09:28:05;;;;;;;13.70;5.10;;;37.60;39.90;;;;;;5047427;28;20027;-78
2021/07/13 09:30:31;;;;;;;6.93;4.03;;;37.80;36.10;;;;;;5029022;28;20037;-78
2021/07/13 09:33:18;;;;;;;10.20;5.10;;;37.50;37.00;;;;;;5029334;28;20029;-79
2021/07/13 09:36:02;;;;;;;8.18;4.82;;;37.40;39.60;;;;;;5028874;28;20028;-81
2021/07/13 09:38:31;;;;;;;7.18;5.35;;;37.70;39.60;;;;;;5046942;28;20124;-78
2021/07/13 09:41:06;;;;;;;9.52;4.30;;;37.80;38.10;;;;;;5045508;28;20033;-79
2021/07/13 09:43:46;;;;;;;8.77;4.65;;;37.50;38.60;;;;;;5047191;28;20025;-78
2021/07/13 09:46:34;;;;;;;15.48;5.10;;;37.40;38.80;;;;;;5046474;28;20033;-79
2021/07/13 09:49:06;;;;;;;16.30;4.93;;;37.10;39.10;;;;;;5045431;28;20040;-78
2021/07/13 09:51:31;;;;;;;9.38;4.32;;;37.40;38.30;;;;;;5046898;28;20664;-80
2021/07/13 09:53:57;;;;;;;6.00;4.10;;;37.30;39.30;;;;;;5046968;28;20033;-81
2021/07/13 09:56:44;;;;;;;7.28;4.10;;;37.40;38.90;;;;;;5045463;28;20036;-80
2021/07/13 09:59:10;;;;;;;14.77;4.82;;;37.70;37.90;;;;;;5045316;28;20474;-81
2021/07/13 10:01:37;;;;;;;5.93;4.18;;;37.10;38.60;;;;;;5044851;28;20036;-77
2021/07/13 10:04:03;;;;;;;7.63;4.10;;;37.20;38.90;;;;;;5045358;28;20028;-77
2021/07/13 10:06:31;;;;;;;11.55;4.05;;;36.80;38.30;;;;;;5046410;28;20025;-78
2021/07/13 10:09:01;;;;;;;11.75;4.75;;;36.90;39.00;;;;;;5044781;28;20139;-78
2021/07/13 10:11:30;;;;;;;5.95;4.18;;;36.90;38.20;;;;;;5045297;28;20029;-80
2021/07/13 10:13:59;;;;;;;5.07;4.57;;;36.60;39.60;;;;;;5045190;28;20029;-79
2021/07/13 10:16:25;;;;;;;7.35;4.60;;;36.10;40.50;;;;;;5044212;28;20123;-80
2021/07/13 10:18:51;;;;;;;13.60;5.15;;;35.70;40.80;;;;;;5045170;28;20094;-79
2021/07/13 10:21:18;;;;;;;13.32;4.60;;;35.30;41.70;;;;;;5044672;28;20021;-80
2021/07/13 10:23:45;;;;;;;9.30;4.78;;;35.30;41.90;;;;;;5045216;28;20037;-80
2021/07/13 10:26:11;;;;;;;12.05;4.43;;;35.10;42.20;;;;;;5046412;28;20039;-79
2021/07/13 10:28:38;;;;;;;9.00;4.60;;;34.80;42.00;;;;;;5044616;28;20163;-79
2021/07/13 10:31:05;;;;;;;4.25;3.85;;;34.80;41.10;;;;;;5044546;28;20032;-79
2021/07/13 10:33:39;;;;;;;9.73;4.72;;;34.60;41.40;;;;;;5044633;28;20028;-76
2021/07/13 10:36:29;;;;;;;9.10;4.40;;;34.30;43.00;;;;;;5046332;28;20389;-77
2021/07/13 10:39:30;;;;;;;12.20;4.35;;;34.10;42.70;;;;;;5046115;28;20094;-78
2021/07/13 10:41:59;;;;;;;7.07;4.82;;;34.10;43.60;;;;;;5025381;28;20452;-77
2021/07/13 10:44:43;;;;;;;5.78;4.40;;;34.30;42.30;;;;;;5028459;28;20032;-78
2021/07/13 10:47:27;;;;;;;5.97;3.97;;;34.20;42.90;;;;;;5028346;28;20180;-77
2021/07/13 10:50:22;;;;;;;18.15;5.18;;;34.20;42.80;;;;;;5028177;28;20029;-78
2021/07/13 10:52:55;;;;;;;12.98;3.92;;;34.10;42.60;;;;;;5046250;28;20036;-77
2021/07/13 10:55:30;;;;;;;5.10;4.60;;;34.10;43.70;;;;;;5028167;28;20417;-77
2021/07/13 10:58:14;;;;;;;5.40;4.10;;;33.90;42.90;;;;;;5028222;28;20045;-77
2021/07/13 11:00:53;;;;;;;6.82;4.93;;;33.70;43.60;;;;;;5045867;28;20033;-78
2021/07/13 11:03:31;;;;;;;7.97;5.25;;;33.50;44.40;;;;;;5028416;28;20545;-78
2021/07/13 11:06:08;;;;;;;10.23;5.32;;;33.50;44.70;;;;;;5045889;28;20094;-78
2021/07/13 11:08:51;;;;;;;10.77;5.25;;;33.50;44.40;;;;;;5045940;28;20082;-78
2021/07/13 11:11:20;;;;;;;10.77;5.22;;;33.70;44.20;;;;;;5028007;28;20513;-78
2021/07/13 11:13:52;;;;;;;7.35;4.78;;;33.80;44.00;;;;;;5046297;28;20050;-78
2021/07/13 11:16:23;;;;;;;14.05;5.35;;;34.00;43.90;;;;;;5045603;28;20037;-76
2021/07/13 11:18:49;;;;;;;8.30;5.00;;;34.00;43.60;;;;;;5028259;28;20037;-78
2021/07/13 11:21:26;;;;;;;8.50;4.55;;;34.20;44.50;;;;;;5049852;28;20740;-77
2021/07/13 11:23:57;;;;;;;7.43;5.30;;;34.20;44.40;;;;;;5049938;28;20028;-76
2021/07/13 11:26:24;;;;;;;10.45;5.18;;;34.10;44.30;;;;;;5049969;28;20032;-77
2021/07/13 11:28:56;;;;;;;17.38;5.07;;;34.00;43.90;;;;;;5031640;28;20025;-77
2021/07/13 11:31:24;;;;;;;7.20;4.75;;;34.00;44.20;;;;;;5049207;28;20056;-78
2021/07/13 11:33:58;;;;;;;7.20;4.25;;;34.20;42.90;;;;;;5031680;28;20060;-78
2021/07/13 11:36:30;;;;;;;8.18;5.03;;;34.40;42.30;;;;;;5049148;28;20055;-77
2021/07/13 11:38:58;;;;;;;6.30;4.82;;;34.50;42.40;;;;;;5049201;28;20040;-77
2021/07/13 11:41:25;;;;;;;13.52;5.00;;;34.60;43.00;;;;;;5049499;28;20384;-77
2021/07/13 11:43:53;;;;;;;7.88;5.63;;;34.60;42.10;;;;;;5031010;28;20025;-78
2021/07/13 11:46:21;;;;;;;13.18;4.85;;;34.70;42.40;;;;;;5048730;28;20032;-78
2021/07/13 11:49:03;;;;;;;10.82;4.68;;;34.60;42.50;;;;;;5049118;28;20405;-77
2021/07/13 11:51:33;;;;;;;12.40;5.25;;;34.60;41.00;;;;;;5049438;28;20501;-78
2021/07/13 11:54:12;;;;;;;8.65;4.60;;;34.60;40.00;;;;;;5031034;28;20052;-79
2021/07/13 11:56:43;;;;;;;5.82;5.10;;;34.70;40.50;;;;;;5049505;28;20029;-78
2021/07/13 11:59:09;;;;;;;12.10;5.40;;;34.80;42.80;;;;;;5030986;28;20040;-78
2021/07/13 12:01:35;;;;;;;12.23;5.32;;;34.80;41.00;;;;;;5030643;28;20128;-79
2021/07/13 12:04:04;;;;;;;5.50;5.00;;;34.80;40.20;;;;;;5049123;28;20033;-77
2021/07/13 12:06:30;;;;;;;10.80;4.68;;;34.80;40.50;;;;;;5048661;28;20036;-78
2021/07/13 12:09:08;;;;;;;8.40;4.45;;;34.80;40.90;;;;;;5031045;28;20029;-78
2021/07/13 12:11:35;;;;;;;5.45;4.38;;;34.80;40.60;;;;;;5030722;28;20079;-78
2021/07/13 12:14:02;;;;;;;7.28;4.68;;;35.00;38.70;;;;;;5048781;28;20481;-79
2021/07/13 12:16:34;;;;;;;5.25;4.00;;;34.80;39.40;;;;;;5048819;28;20103;-78
2021/07/13 12:19:04;;;;;;;9.63;4.93;;;34.80;39.10;;;;;;5048461;28;20029;-78
2021/07/13 12:21:40;;;;;;;6.43;4.22;;;34.50;39.20;;;;;;5030733;28;20540;-77
2021/07/13 12:24:16;;;;;;;6.85;4.30;;;34.30;39.50;;;;;;5030799;28;20028;-77
2021/07/13 12:26:46;;;;;;;10.15;4.65;;;34.00;40.60;;;;;;5030620;28;20468;-79
2021/07/13 12:29:16;;;;;;;7.43;3.90;;;34.10;40.50;;;;;;5048051;28;20033;-78
2021/07/13 12:31:46;;;;;;;14.98;4.68;;;34.40;40.10;;;;;;5026919;28;20029;-80
2021/07/13 12:34:38;;;;;;;9.98;4.25;;;34.60;38.70;;;;;;5028667;28;20032;-78
2021/07/13 12:37:15;;;;;;;6.32;4.07;;;34.80;39.30;;;;;;5031608;28;20087;-78
2021/07/13 12:39:47;;;;;;;10.95;4.22;;;35.00;38.20;;;;;;5048315;28;20397;-78
2021/07/13 12:42:21;;;;;;;7.40;4.30;;;35.00;38.10;;;;;;5046670;28;20033;-77
2021/07/13 12:44:50;;;;;;;7.95;4.32;;;34.90;38.30;;;;;;5060603;28;20035;-77
2021/07/13 12:47:32;;;;;;;4.43;3.95;;;34.70;38.20;;;;;;5067180;28;20041;-78
2021/07/13 12:50:18;;;;;;;6.05;4.25;;;34.60;39.10;;;;;;5066389;28;20689;-77